METAR Data
IDs: Format: Raw Decoded Include TAF

Data at: 0651 UTC 03 Aug 2021

METAR for:KBNA (Nashville Intl, TN, US)
Text:KBNA 030553Z 33003KT 10SM CLR 21/14 A3004 RMK AO2 SLP165 T02060139 10272 20194 403000194 58005 $
Temperature: 20.6°C ( 69°F)
Dewpoint: 13.9°C ( 57°F) [RH = 65%]
Pressure (altimeter):30.04 inches Hg (1017.4 mb) [Sea level pressure: 1016.5 mb]
Winds:from the NNW (330 degrees) at 3 MPH (3 knots; 1.5 m/s)
Visibility:10 or more sm (16+ km)
Ceiling:at least 12,000 feet AGL
Clouds:sky clear below 12,000 feet AGL
QC Flag:SOME DATA ABOVE MAY BE INACCURATE!!!"$" is an indication the sensor requires maintenance.
Text:KBNA 030453Z 00000KT 10SM CLR 21/14 A3005 RMK AO2 SLP168 T02060139 $
Temperature: 20.6°C ( 69°F)
Dewpoint: 13.9°C ( 57°F) [RH = 65%]
Pressure (altimeter):30.05 inches Hg (1017.7 mb) [Sea level pressure: 1016.8 mb]
Winds:calm
Visibility:10 or more sm (16+ km)
Ceiling:at least 12,000 feet AGL
Clouds:sky clear below 12,000 feet AGL
QC Flag:SOME DATA ABOVE MAY BE INACCURATE!!!"$" is an indication the sensor requires maintenance.
Text:KBNA 030353Z 01004KT 10SM CLR 22/14 A3005 RMK AO2 SLP170 T02220139 $
Temperature: 22.2°C ( 72°F)
Dewpoint: 13.9°C ( 57°F) [RH = 59%]
Pressure (altimeter):30.05 inches Hg (1017.7 mb) [Sea level pressure: 1017.0 mb]
Winds:from the N (10 degrees) at 5 MPH (4 knots; 2.1 m/s)
Visibility:10 or more sm (16+ km)
Ceiling:at least 12,000 feet AGL
Clouds:sky clear below 12,000 feet AGL
QC Flag:SOME DATA ABOVE MAY BE INACCURATE!!!"$" is an indication the sensor requires maintenance.